Time;durP1;ratioP1;P1;durP2;ratioP2;P2;SDS_P1;SDS_P2;PMS_P1;PMS_P2;Temp;Humidity;BMP_temperature;BMP_pressure;BME280_temperature;BME280_humidity;BME280_pressure;Samples;Min_cycle;Max_cycle;Signal;HPM_P1;HPM_P2
2023/12/02 00:02:17;;;;;;;1999.90;999.90;;;0.10;99.90;;;;;;5071961;28;20043;-71
2023/12/02 00:04:42;;;;;;;1999.90;999.90;;;0.10;99.90;;;;;;5071915;28;20024;-70
2023/12/02 00:07:10;;;;;;;1999.90;999.90;;;0.10;99.90;;;;;;5070886;28;20025;-72
2023/12/02 00:09:36;;;;;;;1999.90;999.90;;;0.10;99.90;;;;;;5067315;28;20152;-71
2023/12/02 00:12:02;;;;;;;1999.90;999.90;;;0.10;99.90;;;;;;5067755;28;20031;-71
2023/12/02 00:14:29;;;;;;;1999.90;999.90;;;0.00;99.90;;;;;;5071407;28;20085;-72
2023/12/02 00:16:55;;;;;;;1999.90;999.90;;;0.00;99.90;;;;;;5070569;28;20746;-71
2023/12/02 00:19:20;;;;;;;1999.90;999.90;;;0.10;99.90;;;;;;5067401;28;20029;-70
2023/12/02 00:21:46;;;;;;;1999.90;999.90;;;0.00;99.90;;;;;;5067560;28;20036;-70
2023/12/02 00:24:12;;;;;;;1999.90;999.90;;;0.00;99.90;;;;;;5065559;28;20116;-71
2023/12/02 00:26:38;;;;;;;1999.90;999.90;;;0.00;99.90;;;;;;5068915;28;20036;-71
2023/12/02 00:29:06;;;;;;;1999.90;999.90;;;-0.10;99.90;;;;;;5072006;28;20055;-70
2023/12/02 00:31:32;;;;;;;1999.90;999.90;;;0.00;99.90;;;;;;5070665;28;20029;-71
2023/12/02 00:33:57;;;;;;;1999.90;999.90;;;-0.10;99.90;;;;;;5066909;28;20138;-71
2023/12/02 00:36:23;;;;;;;1999.90;999.90;;;-0.10;99.90;;;;;;5071644;28;20472;-70
2023/12/02 00:38:49;;;;;;;1999.90;999.90;;;0.00;99.90;;;;;;5069134;28;20437;-71
2023/12/02 00:41:15;;;;;;;1999.90;999.90;;;-0.10;99.90;;;;;;5068795;28;20130;-70
2023/12/02 00:43:42;;;;;;;1999.90;999.90;;;-0.10;99.90;;;;;;5074470;28;20039;-71
2023/12/02 00:46:08;;;;;;;1999.90;999.90;;;0.00;99.90;;;;;;5072956;28;20020;-69
2023/12/02 00:48:33;;;;;;;1999.90;999.90;;;-0.10;99.90;;;;;;5073870;28;20033;-71
2023/12/02 00:50:59;;;;;;;1999.90;999.90;;;-0.10;99.90;;;;;;5072623;28;20044;-70
2023/12/02 00:53:24;;;;;;;1999.90;999.90;;;-0.10;99.90;;;;;;5071493;28;20040;-70
2023/12/02 00:55:50;;;;;;;1999.90;999.90;;;-0.10;99.90;;;;;;5073211;28;20123;-70
2023/12/02 00:58:16;;;;;;;1999.90;999.90;;;-0.10;99.90;;;;;;5070328;28;20085;-71
2023/12/02 01:00:42;;;;;;;1999.90;999.90;;;-0.10;99.90;;;;;;5069725;28;20082;-71
2023/12/02 01:03:07;;;;;;;1999.90;999.90;;;-0.10;99.90;;;;;;5066158;28;20039;-71
2023/12/02 01:05:33;;;;;;;1999.90;999.90;;;-0.20;99.90;;;;;;5071578;28;20056;-70
2023/12/02 01:07:59;;;;;;;1999.90;999.90;;;-0.20;99.90;;;;;;5069188;28;20557;-70
2023/12/02 01:10:24;;;;;;;1999.90;999.90;;;-0.20;99.90;;;;;;5074926;28;20758;-70
2023/12/02 01:12:50;;;;;;;1999.90;999.90;;;-0.30;99.90;;;;;;5064851;28;20029;-70
2023/12/02 01:15:16;;;;;;;1999.90;999.90;;;-0.20;99.90;;;;;;5074069;28;20052;-70
2023/12/02 01:17:42;;;;;;;1999.90;999.90;;;-0.20;99.90;;;;;;5071960;28;20469;-70
2023/12/02 01:20:09;;;;;;;1999.90;999.90;;;-0.10;99.90;;;;;;5071271;28;20044;-70
2023/12/02 01:22:35;;;;;;;1999.90;999.90;;;-0.20;99.90;;;;;;5071230;28;20028;-70
2023/12/02 01:25:01;;;;;;;1999.90;999.90;;;-0.30;99.90;;;;;;5068953;28;20502;-70
2023/12/02 01:27:26;;;;;;;1999.90;999.90;;;-0.10;99.90;;;;;;5069740;28;20032;-69
2023/12/02 01:29:52;;;;;;;1999.90;999.90;;;-0.20;99.90;;;;;;5055158;28;20039;-70
2023/12/02 01:32:18;;;;;;;1999.90;999.90;;;-0.30;99.90;;;;;;5071224;28;20041;-70
2023/12/02 01:34:43;;;;;;;1999.90;999.90;;;-0.20;99.90;;;;;;5067495;28;20044;-69
2023/12/02 01:37:09;;;;;;;1999.90;999.90;;;-0.30;99.90;;;;;;5070125;28;20114;-70
2023/12/02 01:39:35;;;;;;;1999.90;999.90;;;-0.30;99.90;;;;;;5070033;28;20040;-70
2023/12/02 01:42:00;;;;;;;1999.90;999.90;;;-0.30;99.90;;;;;;5071953;28;20040;-71
2023/12/02 01:44:26;;;;;;;1999.90;999.90;;;-0.30;99.90;;;;;;5071247;28;20035;-70
2023/12/02 01:46:51;;;;;;;1999.90;999.90;;;-0.30;99.90;;;;;;5071631;28;20041;-70
2023/12/02 01:49:19;;;;;;;1999.90;999.90;;;-0.40;99.90;;;;;;5067051;28;20062;-70
2023/12/02 01:51:45;;;;;;;1999.90;999.90;;;-0.50;99.90;;;;;;5071662;28;20510;-70
2023/12/02 01:54:10;;;;;;;1999.90;999.90;;;-0.40;99.90;;;;;;5067761;28;20048;-70
2023/12/02 01:56:36;;;;;;;1999.90;999.90;;;-0.40;99.90;;;;;;5066715;28;20141;-69
2023/12/02 01:59:02;;;;;;;1999.90;999.90;;;-0.40;99.90;;;;;;5068391;28;20549;-70
2023/12/02 02:01:29;;;;;;;1999.90;999.90;;;-0.40;99.90;;;;;;5066921;28;20035;-71
2023/12/02 02:03:55;;;;;;;1999.90;999.90;;;-0.40;99.90;;;;;;5069600;28;20040;-69
2023/12/02 02:06:22;;;;;;;1999.90;999.90;;;-0.40;99.90;;;;;;5068257;28;20028;-69
2023/12/02 02:08:47;;;;;;;1999.90;999.90;;;-0.40;99.90;;;;;;5068791;28;20608;-70
2023/12/02 02:11:13;;;;;;;1999.90;999.90;;;-0.40;99.90;;;;;;5066106;28;20048;-70
2023/12/02 02:13:39;;;;;;;1999.90;999.90;;;-0.40;99.90;;;;;;5071667;28;20047;-70
2023/12/02 02:16:05;;;;;;;1999.90;999.90;;;-0.40;99.90;;;;;;5065455;28;20062;-70
2023/12/02 02:18:31;;;;;;;1999.90;999.90;;;-0.40;99.90;;;;;;5068368;28;20037;-69
2023/12/02 02:20:59;;;;;;;1999.90;999.90;;;-0.40;99.90;;;;;;5067115;28;20722;-70
2023/12/02 02:23:25;;;;;;;1999.90;999.90;;;-0.40;99.90;;;;;;5070485;28;20036;-70
2023/12/02 02:25:54;;;;;;;1999.90;999.90;;;-0.40;99.90;;;;;;5068145;28;20078;-70
2023/12/02 02:28:24;;;;;;;1999.90;999.90;;;-0.40;99.90;;;;;;5070022;28;20028;-70
2023/12/02 02:30:50;;;;;;;1999.90;999.90;;;-0.40;99.90;;;;;;5067291;28;20028;-70
2023/12/02 02:33:17;;;;;;;1999.90;999.90;;;-0.40;99.90;;;;;;5069474;28;20089;-70
2023/12/02 02:35:47;;;;;;;1999.90;999.90;;;-0.40;99.90;;;;;;5066857;28;20490;-69
2023/12/02 02:38:12;;;;;;;1999.90;999.90;;;0.00;99.90;;;;;;5066363;28;20486;-70
2023/12/02 02:40:38;;;;;;;1999.90;999.90;;;0.10;99.90;;;;;;5067147;28;20067;-70
2023/12/02 02:43:05;;;;;;;1999.90;999.90;;;0.10;99.90;;;;;;5068910;28;20020;-70
2023/12/02 02:45:31;;;;;;;1999.90;999.90;;;0.10;99.90;;;;;;5051109;28;20115;-71
2023/12/02 02:47:58;;;;;;;1999.90;999.90;;;0.00;99.90;;;;;;5063324;28;20039;-70
2023/12/02 02:50:23;;;;;;;1999.90;999.90;;;0.00;99.90;;;;;;5071143;28;20040;-71
2023/12/02 02:52:52;;;;;;;1999.90;999.90;;;-0.20;99.90;;;;;;5065377;28;20117;-70
2023/12/02 02:55:20;;;;;;;1999.90;999.90;;;-0.30;99.90;;;;;;5069175;28;20048;-71
2023/12/02 02:57:46;;;;;;;1999.90;999.90;;;-0.30;99.90;;;;;;5062880;28;20410;-71
2023/12/02 03:00:12;;;;;;;1999.90;999.90;;;-0.40;99.90;;;;;;5071557;28;20044;-70
2023/12/02 03:02:39;;;;;;;1999.90;999.90;;;-0.40;99.90;;;;;;5069151;28;20115;-71
2023/12/02 03:05:06;;;;;;;1999.90;999.90;;;-0.40;99.90;;;;;;5067422;28;20029;-70
2023/12/02 03:07:32;;;;;;;1999.90;999.90;;;-0.50;99.90;;;;;;5067822;28;20046;-71
2023/12/02 03:09:58;;;;;;;1999.90;999.90;;;-0.60;99.90;;;;;;5068409;28;20096;-70
2023/12/02 03:12:25;;;;;;;1999.90;999.90;;;-0.60;99.90;;;;;;5068145;28;20032;-70
2023/12/02 03:14:51;;;;;;;1999.90;999.90;;;-0.60;99.90;;;;;;5072723;28;20039;-70
2023/12/02 03:17:18;;;;;;;1999.90;999.90;;;-0.60;99.90;;;;;;5078584;28;20078;-70
2023/12/02 03:19:44;;;;;;;1999.90;999.90;;;-0.50;99.90;;;;;;5075377;28;20033;-71
2023/12/02 03:22:09;;;;;;;1999.90;999.90;;;-0.50;99.90;;;;;;5070353;28;20050;-70
2023/12/02 03:24:35;;;;;;;1999.90;999.90;;;-0.40;99.90;;;;;;5072544;28;20039;-70
2023/12/02 03:27:02;;;;;;;1999.90;999.90;;;-0.50;99.90;;;;;;5067757;28;20445;-71
2023/12/02 03:29:28;;;;;;;1999.90;999.90;;;-0.40;99.90;;;;;;5070656;28;20028;-71
2023/12/02 03:31:54;;;;;;;1999.90;999.90;;;-0.60;99.90;;;;;;5068836;28;20083;-70
2023/12/02 03:34:20;;;;;;;1999.90;999.90;;;-0.70;99.90;;;;;;5066899;28;20101;-70
2023/12/02 03:36:48;;;;;;;1999.90;999.90;;;-0.60;99.90;;;;;;5071287;28;20100;-70
2023/12/02 03:39:15;;;;;;;1999.90;999.90;;;-0.60;99.90;;;;;;5071401;28;20028;-71
2023/12/02 03:41:44;;;;;;;1999.90;999.90;;;-0.70;99.90;;;;;;5071275;28;20037;-70
2023/12/02 03:44:10;;;;;;;1999.90;999.90;;;-0.60;99.90;;;;;;5069702;28;20039;-70
2023/12/02 03:46:36;;;;;;;1999.90;999.90;;;-0.70;99.90;;;;;;5075035;28;20024;-71
2023/12/02 03:49:02;;;;;;;1999.90;999.90;;;-0.70;99.90;;;;;;5068687;28;20025;-71
2023/12/02 03:51:28;;;;;;;1999.90;999.90;;;-0.70;99.90;;;;;;5070641;28;20043;-70
2023/12/02 03:53:54;;;;;;;1999.90;999.90;;;-0.70;99.90;;;;;;5072499;28;20036;-70
2023/12/02 03:56:20;;;;;;;1999.90;999.90;;;-0.70;99.90;;;;;;5071918;28;20035;-71
2023/12/02 03:58:47;;;;;;;1999.90;999.90;;;-0.70;99.90;;;;;;5070659;28;20118;-70
2023/12/02 04:01:15;;;;;;;1999.90;999.90;;;-0.70;99.90;;;;;;5069788;28;20470;-70
2023/12/02 04:03:42;;;;;;;1999.90;999.90;;;-0.90;99.90;;;;;;5069334;28;20043;-70
2023/12/02 04:06:08;;;;;;;1999.90;999.90;;;-0.90;99.90;;;;;;5071360;28;20066;-70
2023/12/02 04:08:34;;;;;;;1999.90;999.90;;;-1.00;99.90;;;;;;5069693;28;20139;-70
2023/12/02 04:11:00;;;;;;;1999.90;999.90;;;-0.90;99.90;;;;;;5069861;28;20468;-70
2023/12/02 04:13:25;;;;;;;1999.90;999.90;;;-0.90;99.90;;;;;;5068968;28;20032;-70
2023/12/02 04:15:51;;;;;;;1999.90;999.90;;;-0.80;99.90;;;;;;5070130;28;20122;-70
2023/12/02 04:18:17;;;;;;;1999.90;999.90;;;-0.80;99.90;;;;;;5065119;28;20036;-70
2023/12/02 04:20:43;;;;;;;1999.90;999.90;;;-0.70;99.90;;;;;;5069798;28;20402;-70
2023/12/02 04:23:08;;;;;;;1999.90;999.90;;;-0.70;99.90;;;;;;5069908;28;20391;-70
2023/12/02 04:25:34;;;;;;;1999.90;999.90;;;-0.70;99.90;;;;;;5068299;28;20033;-70
2023/12/02 04:28:00;;;;;;;1999.90;999.90;;;-0.70;99.90;;;;;;5065243;28;20034;-69
2023/12/02 04:30:27;;;;;;;1999.90;999.90;;;-0.70;99.90;;;;;;5071582;28;20060;-71
2023/12/02 04:32:52;;;;;;;1999.90;999.90;;;-0.70;99.90;;;;;;5067727;28;20045;-71
2023/12/02 04:35:18;;;;;;;1999.90;999.90;;;-0.70;99.90;;;;;;5069235;28;20098;-70
2023/12/02 04:37:44;;;;;;;1999.90;999.90;;;-0.70;99.90;;;;;;5069942;28;20163;-70
2023/12/02 04:40:11;;;;;;;1999.90;999.90;;;-0.80;99.90;;;;;;5071705;28;20103;-69
2023/12/02 04:42:40;;;;;;;1999.90;999.90;;;-0.80;99.90;;;;;;5067114;28;20490;-70
2023/12/02 04:45:07;;;;;;;1999.90;999.90;;;-0.90;99.90;;;;;;5070242;28;20560;-71
2023/12/02 04:47:36;;;;;;;1999.90;999.90;;;-0.90;99.90;;;;;;5069965;28;20075;-70
2023/12/02 04:50:06;;;;;;;1999.90;999.90;;;-0.80;99.90;;;;;;5069025;28;20021;-70
2023/12/02 04:52:32;;;;;;;1999.90;999.90;;;-0.90;99.90;;;;;;5070452;28;20036;-71
2023/12/02 04:54:58;;;;;;;1999.90;999.90;;;-0.90;99.90;;;;;;5071041;28;20141;-69
2023/12/02 04:57:25;;;;;;;1999.90;999.90;;;-0.90;99.90;;;;;;5070387;28;20120;-71
2023/12/02 04:59:50;;;;;;;1999.90;999.90;;;-0.80;99.90;;;;;;5068266;28;20063;-70
2023/12/02 05:02:18;;;;;;;1999.90;999.90;;;-0.90;99.90;;;;;;5071049;28;20122;-70
2023/12/02 05:04:44;;;;;;;1999.90;999.90;;;-0.80;99.90;;;;;;5068016;28;20112;-71
2023/12/02 05:07:10;;;;;;;1999.90;999.90;;;-0.90;99.90;;;;;;5066773;28;20190;-70
2023/12/02 05:09:37;;;;;;;1999.90;999.90;;;-0.90;99.90;;;;;;5067743;28;20107;-71
2023/12/02 05:12:03;;;;;;;1999.90;999.90;;;-0.90;99.90;;;;;;5067867;28;20020;-70
2023/12/02 05:14:28;;;;;;;1999.90;999.90;;;-1.00;99.90;;;;;;5065340;28;20032;-70
2023/12/02 05:16:54;;;;;;;1999.90;999.90;;;-0.90;99.90;;;;;;5070944;28;20025;-71
2023/12/02 05:19:19;;;;;;;1999.90;999.90;;;-0.90;99.90;;;;;;5068642;28;20514;-70
2023/12/02 05:21:45;;;;;;;1999.90;999.90;;;-0.80;99.90;;;;;;5071427;28;20040;-70
2023/12/02 05:24:11;;;;;;;1999.90;999.90;;;-0.80;99.90;;;;;;5067076;28;20033;-70
2023/12/02 05:26:36;;;;;;;1999.90;999.90;;;-0.80;99.90;;;;;;5071819;28;20024;-70
2023/12/02 05:29:03;;;;;;;1999.90;999.90;;;-0.80;99.90;;;;;;5068325;28;20089;-70
2023/12/02 05:31:28;;;;;;;1999.90;999.90;;;-0.80;99.90;;;;;;5070548;28;20028;-70
2023/12/02 05:33:55;;;;;;;1999.90;999.90;;;-0.80;99.90;;;;;;5068261;28;20115;-70
2023/12/02 05:36:21;;;;;;;1999.90;999.90;;;-1.00;99.90;;;;;;5064738;28;20082;-70
2023/12/02 05:38:46;;;;;;;1999.90;999.90;;;-0.90;99.90;;;;;;5068105;28;20044;-70
2023/12/02 05:41:12;;;;;;;1999.90;999.90;;;-0.90;99.90;;;;;;5071731;28;20486;-70
2023/12/02 05:43:38;;;;;;;1999.90;999.90;;;-0.90;99.90;;;;;;5068661;28;20040;-70
2023/12/02 05:46:04;;;;;;;1999.90;999.90;;;-0.80;99.90;;;;;;5066782;28;20170;-70
2023/12/02 05:48:31;;;;;;;1999.90;999.90;;;-0.80;99.90;;;;;;5069133;28;20035;-70
2023/12/02 05:51:00;;;;;;;1999.90;999.90;;;-0.80;99.90;;;;;;5069159;28;20052;-70
2023/12/02 05:53:26;;;;;;;1999.90;999.90;;;-0.90;99.90;;;;;;5069246;28;20056;-71
2023/12/02 05:55:51;;;;;;;1999.90;999.90;;;-0.90;99.90;;;;;;5065375;28;20071;-70
2023/12/02 05:58:17;;;;;;;1999.90;999.90;;;-1.00;99.90;;;;;;5067408;28;20051;-70
2023/12/02 06:00:44;;;;;;;1999.90;999.90;;;-1.00;99.90;;;;;;5061122;28;20040;-70
2023/12/02 06:03:10;;;;;;;1999.90;999.90;;;-1.10;99.90;;;;;;5066612;28;20501;-69
2023/12/02 06:05:35;;;;;;;1999.90;999.90;;;-1.10;99.90;;;;;;5066211;28;20506;-70
2023/12/02 06:08:01;;;;;;;1999.90;999.90;;;-1.00;99.90;;;;;;5066222;28;20390;-69
2023/12/02 06:10:27;;;;;;;1999.90;999.90;;;-1.10;99.90;;;;;;5065890;28;20032;-70
2023/12/02 06:12:52;;;;;;;1999.90;999.90;;;-1.10;99.90;;;;;;5067499;28;20147;-69
2023/12/02 06:15:19;;;;;;;1999.90;999.90;;;-1.00;99.90;;;;;;5051689;28;20024;-70
2023/12/02 06:17:45;;;;;;;1999.90;999.90;;;-0.90;99.90;;;;;;5065473;28;20033;-69
2023/12/02 06:20:11;;;;;;;1999.90;999.90;;;-1.00;99.90;;;;;;5067644;28;20046;-69
2023/12/02 06:22:37;;;;;;;1999.90;999.90;;;-1.00;99.90;;;;;;5070131;28;20443;-70
2023/12/02 06:25:04;;;;;;;1999.90;999.90;;;-1.10;99.90;;;;;;5065009;28;20066;-69
2023/12/02 06:27:29;;;;;;;1999.90;999.90;;;-1.20;99.90;;;;;;5066753;28;20402;-70
2023/12/02 06:29:55;;;;;;;1999.90;999.90;;;-1.00;99.90;;;;;;5068881;28;20033;-70
2023/12/02 06:32:20;;;;;;;1999.90;999.90;;;-1.10;99.90;;;;;;5069395;28;20068;-70
2023/12/02 06:34:46;;;;;;;1999.90;999.90;;;-1.20;99.90;;;;;;5066537;28;20107;-70
2023/12/02 06:37:12;;;;;;;1999.90;999.90;;;-1.30;99.90;;;;;;5068283;28;20123;-69
2023/12/02 06:39:40;;;;;;;1999.90;999.90;;;-1.30;99.90;;;;;;5069631;28;20058;-70
2023/12/02 06:42:06;;;;;;;1999.90;999.90;;;-1.30;99.90;;;;;;5069878;28;20032;-69
2023/12/02 06:44:32;;;;;;;1999.90;999.90;;;-1.30;99.90;;;;;;5070257;28;20066;-68
2023/12/02 06:46:58;;;;;;;1999.90;999.90;;;-1.30;99.90;;;;;;5081303;28;20029;-69
2023/12/02 06:49:23;;;;;;;1999.90;999.90;;;-1.30;99.90;;;;;;5082328;28;20478;-70
2023/12/02 06:51:49;;;;;;;1999.90;999.90;;;-1.10;99.90;;;;;;5079871;28;20048;-70
2023/12/02 06:54:15;;;;;;;1999.90;999.90;;;-1.30;99.90;;;;;;5075582;28;20478;-69
2023/12/02 06:56:41;;;;;;;1999.90;999.90;;;-1.30;99.90;;;;;;5069316;28;20024;-70
2023/12/02 06:59:07;;;;;;;1999.90;999.90;;;-1.30;99.90;;;;;;5069630;28;20048;-70
2023/12/02 07:01:33;;;;;;;1999.90;999.90;;;-1.30;99.90;;;;;;5070237;28;20597;-71
2023/12/02 07:04:00;;;;;;;1999.90;999.90;;;-1.30;99.90;;;;;;5066840;28;20025;-70
2023/12/02 07:06:27;;;;;;;1999.90;999.90;;;-1.30;99.90;;;;;;5068863;28;20033;-71
2023/12/02 07:08:54;;;;;;;1999.90;999.90;;;-1.30;99.90;;;;;;5071988;28;20029;-71
2023/12/02 07:11:20;;;;;;;1999.90;999.90;;;-1.30;99.90;;;;;;5072885;28;20637;-70
2023/12/02 07:13:46;;;;;;;1999.90;999.90;;;-1.40;99.90;;;;;;5076843;28;20020;-70
2023/12/02 07:16:12;;;;;;;1999.90;999.90;;;-1.40;99.90;;;;;;5071899;28;20040;-71
2023/12/02 07:18:39;;;;;;;1999.90;999.90;;;-1.30;99.90;;;;;;5076488;28;20043;-71
2023/12/02 07:21:06;;;;;;;1999.90;999.90;;;-1.30;99.90;;;;;;5073018;28;20032;-71
2023/12/02 07:23:31;;;;;;;1999.90;999.90;;;-1.40;99.90;;;;;;5073288;28;20560;-71
2023/12/02 07:25:58;;;;;;;1999.90;999.90;;;-1.40;99.90;;;;;;5075106;28;20127;-71
2023/12/02 07:28:24;;;;;;;1999.90;999.90;;;-1.30;99.90;;;;;;5069944;28;20033;-70
2023/12/02 07:30:50;;;;;;;1999.90;999.90;;;-1.10;99.90;;;;;;5075732;28;20029;-71
2023/12/02 07:33:20;;;;;;;1999.90;999.90;;;-1.10;99.90;;;;;;5073698;28;20494;-72
2023/12/02 07:35:46;;;;;;;1999.90;999.90;;;-1.20;99.90;;;;;;5074837;28;20036;-71
2023/12/02 07:38:11;;;;;;;1999.90;999.90;;;-1.20;99.90;;;;;;5073466;28;20032;-72
2023/12/02 07:40:37;;;;;;;1999.90;999.90;;;-1.20;99.90;;;;;;5075460;28;20036;-72
2023/12/02 07:43:03;;;;;;;1999.90;999.90;;;-1.10;99.90;;;;;;5071951;28;20119;-71
2023/12/02 07:45:29;;;;;;;1999.90;999.90;;;-1.10;99.90;;;;;;5070783;28;20509;-72
2023/12/02 07:47:55;;;;;;;1999.90;999.90;;;-1.10;99.90;;;;;;5070511;28;20029;-72
2023/12/02 07:50:21;;;;;;;1999.90;999.90;;;-1.00;99.90;;;;;;5071250;28;20060;-72
2023/12/02 07:52:47;;;;;;;1999.90;999.90;;;-0.90;99.90;;;;;;5069902;28;20068;-72
2023/12/02 07:55:13;;;;;;;1999.90;999.90;;;-1.00;99.90;;;;;;5071011;28;20462;-72
2023/12/02 07:57:39;;;;;;;1999.90;999.90;;;-1.10;99.90;;;;;;5068993;28;20028;-71
2023/12/02 08:00:06;;;;;;;1999.90;999.90;;;-1.20;99.90;;;;;;5069618;28;20111;-71
2023/12/02 08:02:32;;;;;;;1999.90;999.90;;;-1.00;99.90;;;;;;5070998;28;20124;-72
2023/12/02 08:04:57;;;;;;;1999.90;999.90;;;-1.00;99.90;;;;;;5069337;28;20780;-72
2023/12/02 08:07:26;;;;;;;1999.90;999.90;;;-0.90;99.90;;;;;;5071067;28;20028;-72
2023/12/02 08:09:52;;;;;;;1999.90;999.90;;;-0.90;99.90;;;;;;5073690;28;20059;-72
2023/12/02 08:12:17;;;;;;;1999.90;999.90;;;-0.90;99.90;;;;;;5076147;28;20445;-72
2023/12/02 08:14:43;;;;;;;1999.90;999.90;;;-0.90;99.90;;;;;;5069356;28;20447;-76
2023/12/02 08:17:09;;;;;;;1999.90;999.90;;;-0.90;99.90;;;;;;5070822;28;20442;-76
2023/12/02 08:19:35;;;;;;;1999.90;999.90;;;-0.90;99.90;;;;;;5069904;28;20399;-77
2023/12/02 08:22:01;;;;;;;1999.90;999.90;;;-1.00;99.90;;;;;;5066876;28;20032;-76
2023/12/02 08:24:27;;;;;;;1999.90;999.90;;;-1.00;99.90;;;;;;5065301;28;20029;-76
2023/12/02 08:26:52;;;;;;;1999.90;999.90;;;-0.80;99.90;;;;;;5066700;28;20043;-75
2023/12/02 08:29:18;;;;;;;1999.90;999.90;;;-0.80;99.90;;;;;;5066276;28;20067;-75
2023/12/02 08:31:44;;;;;;;1999.90;999.90;;;-0.80;99.90;;;;;;5065175;28;20025;-75
2023/12/02 08:34:10;;;;;;;1999.90;999.90;;;-0.70;99.90;;;;;;5068906;28;20067;-71
2023/12/02 08:36:35;;;;;;;1999.90;999.90;;;-0.70;99.90;;;;;;5071448;28;20134;-70
2023/12/02 08:39:04;;;;;;;1999.90;999.90;;;-0.80;99.90;;;;;;5068044;28;20091;-72
2023/12/02 08:41:30;;;;;;;1999.90;999.90;;;-0.90;99.90;;;;;;5070097;28;20037;-74
2023/12/02 08:43:56;;;;;;;1999.90;999.90;;;-0.80;99.90;;;;;;5073607;28;20040;-71
2023/12/02 08:46:22;;;;;;;1999.90;999.90;;;-0.70;99.90;;;;;;5065361;28;20037;-72
2023/12/02 08:48:47;;;;;;;1999.90;999.90;;;-0.60;99.90;;;;;;5069759;28;20047;-71
2023/12/02 08:51:13;;;;;;;1999.90;999.90;;;-0.60;99.90;;;;;;5069392;28;20060;-72
2023/12/02 08:53:39;;;;;;;1999.90;999.90;;;-0.50;99.90;;;;;;5067776;28;20035;-72
2023/12/02 08:56:05;;;;;;;1999.90;999.90;;;-0.50;99.90;;;;;;5067958;28;20032;-72
2023/12/02 08:58:30;;;;;;;1999.90;999.90;;;-0.40;99.90;;;;;;5069570;28;20106;-77
2023/12/02 09:00:56;;;;;;;1999.90;999.90;;;-0.60;99.90;;;;;;5066967;28;20074;-75
2023/12/02 09:03:22;;;;;;;1999.90;999.90;;;-0.70;99.90;;;;;;5053370;28;20043;-75
2023/12/02 09:05:50;;;;;;;1999.90;999.90;;;-0.60;99.90;;;;;;5068677;28;20028;-76
2023/12/02 09:08:16;;;;;;;1999.90;999.90;;;-0.80;99.90;;;;;;5066280;28;20044;-76
2023/12/02 09:10:41;;;;;;;1999.90;999.90;;;-0.70;99.90;;;;;;5068606;28;20032;-75
2023/12/02 09:13:46;;;;;;;1999.90;999.90;;;-0.60;99.90;;;;;;5065017;28;20043;-75
2023/12/02 09:16:15;;;;;;;1999.90;999.90;;;-0.80;99.90;;;;;;5027285;28;20060;-75
2023/12/02 09:18:41;;;;;;;1999.90;999.90;;;-0.90;99.90;;;;;;5059439;28;20081;-75
2023/12/02 09:21:39;;;;;;;1999.90;999.90;;;-0.60;99.90;;;;;;5068779;28;20489;-73
2023/12/02 09:24:33;;;;;;;1999.90;999.90;;;-0.60;99.90;;;;;;5066187;28;20064;-75
2023/12/02 09:26:59;;;;;;;1999.90;999.90;;;-0.70;99.90;;;;;;5067648;28;20036;-76
2023/12/02 09:29:37;;;;;;;1999.90;999.90;;;-0.50;99.90;;;;;;5071244;28;20711;-75
2023/12/02 09:32:24;;;;;;;1999.90;999.90;;;-0.50;99.90;;;;;;5067298;28;20017;-75
2023/12/02 09:34:59;;;;;;;1999.90;999.90;;;-0.60;99.90;;;;;;5069442;28;20024;-73
2023/12/02 09:37:52;;;;;;;1999.90;999.90;;;-0.50;99.90;;;;;;5071958;28;20024;-73
2023/12/02 09:40:20;;;;;;;1999.90;999.90;;;-0.50;99.90;;;;;;5067821;28;20051;-73
2023/12/02 09:42:51;;;;;;;1999.90;999.90;;;-0.60;99.90;;;;;;5069294;28;20039;-73
2023/12/02 09:45:22;;;;;;;1999.90;999.90;;;-0.60;99.90;;;;;;5068356;28;20028;-73
2023/12/02 09:48:09;;;;;;;1999.90;999.90;;;-0.70;99.90;;;;;;5065140;28;20016;-72
2023/12/02 09:50:47;;;;;;;1999.90;999.90;;;-0.80;99.90;;;;;;5065809;28;20075;-72
2023/12/02 09:53:24;;;;;;;1999.90;999.90;;;-0.90;99.90;;;;;;5065575;28;20032;-72
2023/12/02 09:55:57;;;;;;;1999.90;999.90;;;-0.90;99.90;;;;;;5067742;28;20028;-72
2023/12/02 09:58:27;;;;;;;1999.90;999.90;;;-0.90;99.90;;;;;;5067999;28;20435;-73
2023/12/02 10:01:08;;;;;;;1999.90;999.90;;;-0.80;99.90;;;;;;5065946;28;20040;-72
2023/12/02 10:03:46;;;;;;;1999.90;999.90;;;-0.70;99.90;;;;;;5066510;28;20059;-74
2023/12/02 10:06:42;;;;;;;1999.90;999.90;;;-0.40;99.90;;;;;;5067168;28;20029;-74
2023/12/02 10:10:03;;;;;;;1999.90;999.90;;;-0.20;99.90;;;;;;5068990;28;20020;-76
2023/12/02 10:12:40;;;;;;;1999.90;999.90;;;-0.10;99.90;;;;;;5054599;28;20033;-72
2023/12/02 10:15:11;;;;;;;1999.90;999.90;;;-0.10;99.90;;;;;;5070186;28;20024;-72
2023/12/02 10:17:45;;;;;;;;;;;-0.30;99.90;;;;;;5070468;28;20029;-72
2023/12/02 10:20:12;;;;;;;1999.90;999.90;;;-0.40;99.90;;;;;;5065883;28;20060;-71
2023/12/02 10:22:44;;;;;;;1999.90;999.90;;;-0.50;99.90;;;;;;5064594;28;20043;-72
2023/12/02 10:25:16;;;;;;;1999.90;999.90;;;-0.40;99.90;;;;;;5070010;28;20020;-71
2023/12/02 10:27:42;;;;;;;1999.90;999.90;;;-0.30;99.90;;;;;;5065476;28;20036;-72
2023/12/02 10:30:16;;;;;;;1999.90;999.90;;;-0.40;99.90;;;;;;5069402;28;20386;-70
2023/12/02 10:32:55;;;;;;;1999.90;999.90;;;-0.40;99.90;;;;;;5069789;28;20387;-72
2023/12/02 10:35:28;;;;;;;1999.90;999.90;;;-0.50;99.90;;;;;;5063905;28;20089;-72
2023/12/02 10:38:21;;;;;;;1999.90;999.90;;;-0.40;99.90;;;;;;5070060;28;20037;-74
2023/12/02 10:41:06;;;;;;;1999.90;999.90;;;-0.40;99.90;;;;;;5068322;28;20162;-72
2023/12/02 10:43:39;;;;;;;1999.90;999.90;;;-0.50;99.90;;;;;;5069769;28;20612;-72
2023/12/02 10:46:07;;;;;;;1999.90;999.90;;;-0.40;99.90;;;;;;5069349;28;20091;-72
2023/12/02 10:48:35;;;;;;;1999.90;999.90;;;-0.60;99.90;;;;;;5067669;28;20040;-71
2023/12/02 10:51:01;;;;;;;1999.90;999.90;;;-0.70;99.90;;;;;;5072079;28;20164;-71
2023/12/02 10:53:29;;;;;;;1999.90;999.90;;;-0.60;99.90;;;;;;5069104;28;20032;-71
2023/12/02 10:56:00;;;;;;;1999.90;999.90;;;-0.60;99.00;;;;;;5071669;28;20037;-71
2023/12/02 10:58:28;;;;;;;1999.90;999.90;;;-0.60;99.90;;;;;;5070136;28;20036;-72
2023/12/02 11:01:01;;;;;;;1999.90;999.90;;;-0.80;99.90;;;;;;5074443;28;20055;-72
2023/12/02 11:03:32;;;;;;;1999.90;999.90;;;-0.70;99.90;;;;;;5068205;28;20603;-72
2023/12/02 11:06:07;;;;;;;1999.90;999.90;;;-0.70;99.90;;;;;;5073495;28;20636;-71
2023/12/02 11:08:47;;;;;;;1999.90;999.90;;;-0.60;99.90;;;;;;5071850;28;20024;-71
2023/12/02 11:11:23;;;;;;;1999.90;999.90;;;-0.60;99.90;;;;;;5069766;28;20499;-71
2023/12/02 11:13:54;;;;;;;1999.90;999.90;;;-0.70;99.90;;;;;;5069869;28;20059;-71
2023/12/02 11:16:33;;;;;;;1999.90;999.90;;;-0.90;99.50;;;;;;5072201;28;20119;-71
2023/12/02 11:19:17;;;;;;;1999.90;999.90;;;-1.00;99.90;;;;;;5071057;28;20040;-72
2023/12/02 11:21:50;;;;;;;1999.90;999.90;;;-1.10;99.90;;;;;;5068231;28;20032;-71
2023/12/02 11:24:25;;;;;;;1999.90;999.90;;;-1.10;99.90;;;;;;5072944;28;20029;-71
2023/12/02 11:27:02;;;;;;;1999.90;999.90;;;-1.10;99.90;;;;;;5071493;28;20387;-73
2023/12/02 11:29:34;;;;;;;1999.90;999.90;;;-1.20;99.90;;;;;;5072302;28;20371;-77
2023/12/02 11:32:02;;;;;;;1999.90;999.90;;;-1.20;99.90;;;;;;5074547;28;20702;-71
2023/12/02 11:34:50;;;;;;;1999.90;999.90;;;-1.20;99.90;;;;;;5067247;28;20024;-73
2023/12/02 11:37:28;;;;;;;1999.90;999.90;;;-1.20;99.90;;;;;;5069209;28;20032;-70
2023/12/02 11:40:05;;;;;;;1999.90;999.90;;;-1.20;99.90;;;;;;5070995;28;20078;-73
2023/12/02 11:42:52;;;;;;;1999.90;999.90;;;-1.20;99.90;;;;;;5073068;28;20494;-73
2023/12/02 11:45:25;;;;;;;1999.90;999.90;;;-1.30;99.90;;;;;;5071645;28;20063;-73
2023/12/02 11:48:25;;;;;;;1999.90;999.90;;;-1.30;99.90;;;;;;5071486;28;20052;-72
2023/12/02 11:51:15;;;;;;;1999.90;999.90;;;-1.30;99.90;;;;;;5065198;28;20498;-72
2023/12/02 11:54:15;;;;;;;1999.90;999.90;;;-1.40;99.90;;;;;;5072971;28;20039;-72
2023/12/02 11:56:51;;;;;;;1999.90;999.90;;;-1.20;99.90;;;;;;5069194;28;20593;-72
2023/12/02 11:59:17;;;;;;;1999.90;999.90;;;-1.20;99.90;;;;;;5069048;28;20068;-72
2023/12/02 12:02:12;;;;;;;1999.90;999.90;;;-1.30;99.90;;;;;;5098839;27;20115;-73
2023/12/02 12:04:55;;;;;;;1999.90;999.90;;;-1.30;99.90;;;;;;5068785;28;20066;-73
2023/12/02 12:07:44;;;;;;;1999.90;999.90;;;-1.40;99.90;;;;;;5068559;28;20140;-72
2023/12/02 12:10:18;;;;;;;1999.90;999.90;;;-1.50;99.90;;;;;;5073427;28;20028;-72